Time;durP1;ratioP1;P1;durP2;ratioP2;P2;SDS_P1;SDS_P2;PMS_P1;PMS_P2;Temp;Humidity;BMP_temperature;BMP_pressure;BME280_temperature;BME280_humidity;BME280_pressure;Samples;Min_cycle;Max_cycle;Signal;HPM_P1;HPM_P2
2022/07/26 00:00:54;;;;;;;8.77;8.07;;;;;;;;;;5060750;28;20028;-73
2022/07/26 00:03:19;;;;;;;9.00;8.10;;;;;;;;;;5060722;28;20111;-73
2022/07/26 00:05:45;;;;;;;9.02;8.30;;;;;;;;;;5065156;28;20024;-73
2022/07/26 00:08:10;;;;;;;8.75;8.02;;;;;;;;;;5042027;28;20101;-73
2022/07/26 00:10:37;;;;;;;9.70;8.80;;;;;;;;;;5065760;28;20032;-72
2022/07/26 00:13:03;;;;;;;9.10;8.40;;;;;;;;;;5065457;28;20028;-73
2022/07/26 00:15:28;;;;;;;12.20;8.70;;;;;;;;;;5065608;28;20039;-73
2022/07/26 00:17:54;;;;;;;9.73;8.82;;;;;;;;;;5061791;28;20066;-74
2022/07/26 00:20:19;;;;;;;9.32;8.48;;;;;;;;;;5061536;28;20062;-74
2022/07/26 00:22:44;;;;;;;9.80;9.00;;;;;;;;;;5065587;28;20036;-73
2022/07/26 00:25:10;;;;;;;9.10;8.30;;;;;;;;;;5065050;28;20362;-73
2022/07/26 00:27:35;;;;;;;9.43;8.63;;;;;;;;;;5066160;28;20070;-73
2022/07/26 00:30:01;;;;;;;9.23;8.50;;;;;;;;;;5063190;28;20035;-76
2022/07/26 00:35:29;;;;;;;9.68;8.90;;;;;;;;;;5061140;28;20039;-74
2022/07/26 00:37:55;;;;;;;9.00;8.30;;;;;;;;;;5061744;28;20020;-73
2022/07/26 00:40:20;;;;;;;9.05;8.30;;;;;;;;;;5065371;28;20429;-72
2022/07/26 00:42:46;;;;;;;9.27;8.35;;;;;;;;;;5065005;28;20392;-72
2022/07/26 00:45:12;;;;;;;9.45;8.57;;;;;;;;;;5058814;28;20101;-72
2022/07/26 00:47:37;;;;;;;9.88;8.98;;;;;;;;;;5056500;28;20021;-73
2022/07/26 00:50:07;;;;;;;9.30;8.43;;;;;;;;;;5061505;28;20416;-73
2022/07/26 00:52:32;;;;;;;9.13;8.32;;;;;;;;;;5058238;28;20098;-73
2022/07/26 00:54:57;;;;;;;9.63;8.73;;;;;;;;;;5055394;28;20032;-74
2022/07/26 00:57:23;;;;;;;10.13;9.23;;;;;;;;;;5062347;28;20081;-73
2022/07/26 00:59:49;;;;;;;9.77;8.80;;;;;;;;;;5065210;28;20033;-73
2022/07/26 01:02:14;;;;;;;9.68;8.88;;;;;;;;;;5065040;28;20025;-73
2022/07/26 01:04:41;;;;;;;9.63;8.73;;;;;;;;;;5064583;28;20024;-74
2022/07/26 01:07:06;;;;;;;10.20;9.18;;;;;;;;;;5056678;28;20111;-74
2022/07/26 01:09:32;;;;;;;9.52;8.73;;;;;;;;;;5061837;28;20139;-73
2022/07/26 01:11:58;;;;;;;9.20;8.48;;;;;;;;;;5064406;28;20470;-73
2022/07/26 01:14:23;;;;;;;9.38;8.63;;;;;;;;;;5059317;28;20047;-75
2022/07/26 01:16:49;;;;;;;9.75;8.80;;;;;;;;;;5062876;28;20823;-73
2022/07/26 01:19:15;;;;;;;9.00;8.20;;;;;;;;;;5064228;28;20028;-74
2022/07/26 01:21:41;;;;;;;9.32;8.43;;;;;;;;;;5064501;28;20024;-72
2022/07/26 01:24:06;;;;;;;9.93;9.05;;;;;;;;;;5064333;28;20363;-73
2022/07/26 01:26:31;;;;;;;9.50;8.60;;;;;;;;;;5057804;28;20036;-73
2022/07/26 01:28:57;;;;;;;9.82;8.93;;;;;;;;;;5063271;28;20028;-74
2022/07/26 01:31:22;;;;;;;9.93;9.02;;;;;;;;;;5064592;28;20121;-73
2022/07/26 01:33:48;;;;;;;9.30;8.50;;;;;;;;;;5062083;28;20020;-72
2022/07/26 01:36:14;;;;;;;9.77;8.98;;;;;;;;;;5054713;28;20020;-72
2022/07/26 01:38:39;;;;;;;9.43;8.63;;;;;;;;;;5063784;28;20020;-74
2022/07/26 01:41:05;;;;;;;9.25;8.35;;;;;;;;;;5064217;28;20060;-73
2022/07/26 01:43:30;;;;;;;9.77;8.88;;;;;;;;;;5064441;28;20024;-73
2022/07/26 01:45:56;;;;;;;10.32;9.38;;;;;;;;;;5064195;28;20043;-73
2022/07/26 01:48:21;;;;;;;9.07;8.27;;;;;;;;;;5064292;28;20086;-72
2022/07/26 01:50:46;;;;;;;9.27;8.48;;;;;;;;;;5064100;28;20031;-73
2022/07/26 01:53:12;;;;;;;9.35;8.55;;;;;;;;;;5056576;28;20697;-73
2022/07/26 01:55:37;;;;;;;8.80;8.00;;;;;;;;;;5060071;28;20475;-72
2022/07/26 01:58:04;;;;;;;8.68;7.97;;;;;;;;;;5064314;28;20038;-72
2022/07/26 02:00:29;;;;;;;9.98;9.13;;;;;;;;;;5064040;28;20036;-72
2022/07/26 02:02:54;;;;;;;9.52;8.70;;;;;;;;;;5064656;28;20024;-72
2022/07/26 02:05:20;;;;;;;9.48;8.68;;;;;;;;;;5064174;28;20378;-73
2022/07/26 02:07:45;;;;;;;9.55;8.75;;;;;;;;;;5063924;28;20108;-75
2022/07/26 02:10:11;;;;;;;10.25;9.35;;;;;;;;;;5064110;28;20025;-73
2022/07/26 02:12:37;;;;;;;9.75;8.85;;;;;;;;;;5064278;28;20085;-73
2022/07/26 02:15:03;;;;;;;9.85;8.98;;;;;;;;;;5061355;28;20032;-73
2022/07/26 02:17:28;;;;;;;10.30;9.43;;;;;;;;;;5061776;28;20051;-73
2022/07/26 02:19:54;;;;;;;9.98;9.18;;;;;;;;;;5064155;28;20092;-73
2022/07/26 02:22:19;;;;;;;9.88;9.07;;;;;;;;;;5064294;28;20028;-72
2022/07/26 02:24:45;;;;;;;10.63;9.63;;;;;;;;;;5063817;28;20420;-72
2022/07/26 02:27:10;;;;;;;10.38;9.48;;;;;;;;;;5061120;28;20013;-72
2022/07/26 02:29:35;;;;;;;9.98;9.18;;;;;;;;;;5066900;28;20034;-73
2022/07/26 02:32:01;;;;;;;9.77;8.98;;;;;;;;;;5066889;28;20055;-74
2022/07/26 02:34:26;;;;;;;10.77;9.68;;;;;;;;;;5065931;28;20035;-73
2022/07/26 02:36:52;;;;;;;10.13;9.23;;;;;;;;;;5066348;28;20442;-74
2022/07/26 02:39:18;;;;;;;10.43;9.52;;;;;;;;;;5066009;28;20052;-72
2022/07/26 02:41:43;;;;;;;10.88;9.98;;;;;;;;;;5046022;28;20031;-72
2022/07/26 02:44:09;;;;;;;9.98;9.07;;;;;;;;;;5063409;28;20028;-72
2022/07/26 02:46:34;;;;;;;10.43;9.38;;;;;;;;;;5067937;28;20062;-72
2022/07/26 02:49:00;;;;;;;9.85;9.05;;;;;;;;;;5061814;28;20020;-73
2022/07/26 02:51:25;;;;;;;10.88;9.90;;;;;;;;;;5058714;28;20029;-73
2022/07/26 02:53:52;;;;;;;13.93;9.35;;;;;;;;;;5066467;28;20394;-72
2022/07/26 02:56:18;;;;;;;11.52;10.52;;;;;;;;;;5067511;28;20016;-73
2022/07/26 02:58:43;;;;;;;10.93;10.02;;;;;;;;;;5067730;28;20034;-73
2022/07/26 03:01:08;;;;;;;10.00;9.02;;;;;;;;;;5068151;28;20036;-72
2022/07/26 03:03:34;;;;;;;9.85;8.95;;;;;;;;;;5064997;28;20048;-73
2022/07/26 03:05:59;;;;;;;9.80;8.98;;;;;;;;;;5068138;28;20048;-73
2022/07/26 03:08:24;;;;;;;9.98;9.15;;;;;;;;;;5067427;28;20028;-73
2022/07/26 03:10:50;;;;;;;11.00;10.10;;;;;;;;;;5067890;28;20058;-72
2022/07/26 03:13:15;;;;;;;10.48;9.57;;;;;;;;;;5067405;28;20063;-72
2022/07/26 03:15:40;;;;;;;11.65;10.05;;;;;;;;;;5067331;28;20020;-73
2022/07/26 03:18:06;;;;;;;11.10;9.38;;;;;;;;;;5059734;28;20447;-74
2022/07/26 03:20:31;;;;;;;10.40;9.50;;;;;;;;;;5067479;28;20029;-73
2022/07/26 03:22:56;;;;;;;10.73;9.73;;;;;;;;;;5066864;28;20431;-73
2022/07/26 03:25:22;;;;;;;10.48;9.52;;;;;;;;;;5067010;28;20020;-74
2022/07/26 03:27:47;;;;;;;9.98;9.07;;;;;;;;;;5067255;28;20086;-73
2022/07/26 03:30:13;;;;;;;10.88;9.98;;;;;;;;;;5066982;28;20028;-73
2022/07/26 03:32:38;;;;;;;10.45;9.60;;;;;;;;;;5066438;28;20032;-72
2022/07/26 03:35:04;;;;;;;11.32;10.13;;;;;;;;;;5066534;28;20013;-71
2022/07/26 03:37:29;;;;;;;10.82;9.93;;;;;;;;;;5062114;28;20025;-72
2022/07/26 03:39:55;;;;;;;11.10;9.65;;;;;;;;;;5062852;28;20451;-71
2022/07/26 03:42:20;;;;;;;9.95;9.05;;;;;;;;;;5066702;28;20446;-74
2022/07/26 03:44:46;;;;;;;12.10;11.00;;;;;;;;;;5066159;28;20416;-74
2022/07/26 03:47:11;;;;;;;10.77;9.88;;;;;;;;;;5066572;28;20436;-73
2022/07/26 03:49:36;;;;;;;10.52;9.45;;;;;;;;;;5067144;28;20313;-74
2022/07/26 03:52:02;;;;;;;11.63;10.18;;;;;;;;;;5066269;28;20036;-73
2022/07/26 03:54:27;;;;;;;10.93;9.93;;;;;;;;;;5066878;28;20024;-73
2022/07/26 03:56:53;;;;;;;10.85;9.95;;;;;;;;;;5055233;28;20067;-74
2022/07/26 03:59:18;;;;;;;10.27;9.27;;;;;;;;;;5054161;28;20470;-75
2022/07/26 04:01:44;;;;;;;11.13;10.18;;;;;;;;;;5058330;28;20043;-73
2022/07/26 04:04:10;;;;;;;10.93;9.98;;;;;;;;;;5054679;28;20025;-73
2022/07/26 04:06:35;;;;;;;11.43;10.52;;;;;;;;;;5059770;28;20035;-73
2022/07/26 04:09:02;;;;;;;11.10;10.10;;;;;;;;;;5065698;28;20024;-74
2022/07/26 04:11:27;;;;;;;12.02;10.80;;;;;;;;;;5060333;28;20059;-74
2022/07/26 04:13:53;;;;;;;11.38;10.38;;;;;;;;;;5056765;28;20048;-75
2022/07/26 04:16:18;;;;;;;13.70;11.35;;;;;;;;;;5060126;28;20066;-76
2022/07/26 04:18:43;;;;;;;11.18;10.15;;;;;;;;;;5058774;28;20029;-77
2022/07/26 04:21:09;;;;;;;11.52;10.60;;;;;;;;;;5057640;28;20135;-77
2022/07/26 04:23:34;;;;;;;11.93;10.82;;;;;;;;;;5056294;28;20020;-76
2022/07/26 04:26:00;;;;;;;13.25;11.88;;;;;;;;;;5057402;28;20020;-76
2022/07/26 04:28:27;;;;;;;13.55;12.35;;;;;;;;;;5062090;28;20024;-76
2022/07/26 04:30:53;;;;;;;12.77;11.68;;;;;;;;;;5066135;28;20431;-77
2022/07/26 04:33:18;;;;;;;12.05;10.95;;;;;;;;;;5065566;28;20036;-76
2022/07/26 04:35:44;;;;;;;13.38;12.20;;;;;;;;;;5055484;28;20024;-77
2022/07/26 04:38:09;;;;;;;10.90;9.90;;;;;;;;;;5055492;28;20028;-75
2022/07/26 04:40:34;;;;;;;12.45;11.18;;;;;;;;;;5055071;28;20375;-76
2022/07/26 04:43:00;;;;;;;12.32;11.23;;;;;;;;;;5060789;28;20036;-75
2022/07/26 04:45:26;;;;;;;12.40;11.23;;;;;;;;;;5064644;28;20356;-75
2022/07/26 04:47:51;;;;;;;12.68;11.48;;;;;;;;;;5059231;28;20438;-73
2022/07/26 04:50:18;;;;;;;11.73;10.73;;;;;;;;;;5064850;28;20126;-73
2022/07/26 04:52:43;;;;;;;12.05;10.95;;;;;;;;;;5061405;28;20024;-74
2022/07/26 04:55:09;;;;;;;11.80;10.70;;;;;;;;;;5064833;28;20024;-74
2022/07/26 04:57:34;;;;;;;12.43;11.32;;;;;;;;;;5065400;28;20030;-75
2022/07/26 05:00:00;;;;;;;12.70;11.60;;;;;;;;;;5064962;28;20028;-75
2022/07/26 05:02:26;;;;;;;12.10;11.05;;;;;;;;;;5065556;28;20029;-74
2022/07/26 05:04:51;;;;;;;11.85;10.85;;;;;;;;;;5065420;28;20107;-75
2022/07/26 05:07:16;;;;;;;12.02;10.88;;;;;;;;;;5065235;28;20359;-74
2022/07/26 05:09:42;;;;;;;12.07;10.98;;;;;;;;;;5064076;28;20103;-73
2022/07/26 05:12:07;;;;;;;12.45;11.25;;;;;;;;;;5065155;28;20442;-73
2022/07/26 05:14:33;;;;;;;11.48;10.38;;;;;;;;;;5065482;28;20037;-75
2022/07/26 05:16:58;;;;;;;11.57;10.57;;;;;;;;;;5064819;28;20059;-76
2022/07/26 05:19:24;;;;;;;11.63;10.52;;;;;;;;;;5064724;28;20043;-76
2022/07/26 05:21:50;;;;;;;11.73;10.55;;;;;;;;;;5065339;28;20059;-76
2022/07/26 05:24:15;;;;;;;12.13;10.60;;;;;;;;;;5064854;28;20034;-74
2022/07/26 05:26:41;;;;;;;10.68;9.77;;;;;;;;;;5064367;28;20359;-75
2022/07/26 05:29:06;;;;;;;10.80;9.90;;;;;;;;;;5064347;28;20024;-76
2022/07/26 05:31:31;;;;;;;11.75;10.60;;;;;;;;;;5064960;28;20443;-75
2022/07/26 05:33:57;;;;;;;11.40;10.50;;;;;;;;;;5064863;28;20129;-77
2022/07/26 05:36:22;;;;;;;11.23;10.13;;;;;;;;;;5064724;28;20078;-76
2022/07/26 05:38:47;;;;;;;9.88;9.07;;;;;;;;;;5065281;28;20021;-75
2022/07/26 05:41:13;;;;;;;10.57;9.52;;;;;;;;;;5065947;28;20028;-74
2022/07/26 05:43:38;;;;;;;10.88;9.88;;;;;;;;;;5064167;28;20048;-75
2022/07/26 05:46:04;;;;;;;10.40;9.50;;;;;;;;;;5064348;28;20020;-76
2022/07/26 05:48:29;;;;;;;11.38;10.27;;;;;;;;;;5064697;28;20021;-78
2022/07/26 05:50:54;;;;;;;11.48;9.70;;;;;;;;;;5065472;28;20412;-78
2022/07/26 05:53:20;;;;;;;10.60;9.52;;;;;;;;;;5065128;28;20367;-75
2022/07/26 05:55:45;;;;;;;10.45;9.55;;;;;;;;;;5065008;28;20024;-76
2022/07/26 05:58:10;;;;;;;11.88;10.77;;;;;;;;;;5065149;28;20752;-75
2022/07/26 06:00:36;;;;;;;10.45;9.55;;;;;;;;;;5064419;28;20032;-75
2022/07/26 06:03:20;;;;;;;10.88;9.77;;;;;;;;;;5064984;28;20024;-75
2022/07/26 06:05:47;;;;;;;10.52;9.52;;;;;;;;;;5064367;28;20489;-77
2022/07/26 06:08:12;;;;;;;11.20;10.20;;;;;;;;;;5064613;28;20116;-75
2022/07/26 06:10:37;;;;;;;10.38;9.38;;;;;;;;;;5064211;28;20413;-75
2022/07/26 06:13:03;;;;;;;11.25;10.05;;;;;;;;;;5063374;28;20078;-77
2022/07/26 06:15:28;;;;;;;11.13;10.02;;;;;;;;;;5064146;28;20028;-76
2022/07/26 06:17:53;;;;;;;10.90;10.00;;;;;;;;;;5064184;28;20043;-76
2022/07/26 06:20:19;;;;;;;11.63;10.15;;;;;;;;;;5063905;28;20025;-77
2022/07/26 06:22:44;;;;;;;11.23;9.88;;;;;;;;;;5063812;28;20037;-76
2022/07/26 06:25:09;;;;;;;10.57;9.68;;;;;;;;;;5063625;28;20111;-76
2022/07/26 06:27:35;;;;;;;10.60;9.52;;;;;;;;;;5063805;28;20020;-76
2022/07/26 06:30:00;;;;;;;10.45;9.55;;;;;;;;;;5063554;28;20340;-76
2022/07/26 06:32:25;;;;;;;10.35;9.32;;;;;;;;;;5063552;28;20029;-77
2022/07/26 06:34:51;;;;;;;10.25;9.30;;;;;;;;;;5063984;28;20112;-76
2022/07/26 06:37:16;;;;;;;11.10;9.45;;;;;;;;;;5063955;28;20024;-77
2022/07/26 06:39:42;;;;;;;10.85;9.85;;;;;;;;;;5042401;28;20053;-76
2022/07/26 06:42:22;;;;;;;10.68;9.70;;;;;;;;;;5021320;28;20386;-77
2022/07/26 06:44:47;;;;;;;10.15;9.25;;;;;;;;;;5043646;28;20044;-78
2022/07/26 06:47:13;;;;;;;9.70;8.80;;;;;;;;;;5044092;28;20111;-77
2022/07/26 06:49:38;;;;;;;10.07;9.20;;;;;;;;;;5043982;28;20056;-77
2022/07/26 06:52:03;;;;;;;9.60;8.70;;;;;;;;;;5042899;28;20029;-77
2022/07/26 06:54:29;;;;;;;9.73;8.93;;;;;;;;;;5043424;28;20433;-77
2022/07/26 06:56:54;;;;;;;10.45;9.55;;;;;;;;;;5043887;28;20029;-77
2022/07/26 06:59:19;;;;;;;10.43;9.40;;;;;;;;;;5044200;28;20703;-78
2022/07/26 07:01:45;;;;;;;9.95;9.05;;;;;;;;;;5043657;28;20486;-78
2022/07/26 07:04:10;;;;;;;10.45;9.45;;;;;;;;;;5043650;28;20044;-77
2022/07/26 07:06:35;;;;;;;10.38;9.43;;;;;;;;;;5043994;28;20363;-77
2022/07/26 07:09:01;;;;;;;10.10;9.05;;;;;;;;;;5043981;28;20348;-78
2022/07/26 07:11:26;;;;;;;10.40;9.52;;;;;;;;;;5044313;28;20055;-78
2022/07/26 07:13:51;;;;;;;9.85;9.05;;;;;;;;;;5044212;28;20021;-78
2022/07/26 07:16:17;;;;;;;10.27;9.32;;;;;;;;;;5043112;28;20076;-76
2022/07/26 07:18:42;;;;;;;9.90;9.10;;;;;;;;;;5043472;28;20670;-75
2022/07/26 07:21:07;;;;;;;11.07;10.15;;;;;;;;;;5043275;28;20359;-77
2022/07/26 07:23:33;;;;;;;9.65;8.70;;;;;;;;;;5043633;28;20064;-78
2022/07/26 07:25:58;;;;;;;10.88;9.77;;;;;;;;;;5043716;28;20025;-79
2022/07/26 07:28:24;;;;;;;10.52;9.52;;;;;;;;;;5043519;28;20025;-77
2022/07/26 07:30:49;;;;;;;9.55;8.80;;;;;;;;;;5043219;28;20036;-77
2022/07/26 07:33:15;;;;;;;9.98;9.07;;;;;;;;;;5045286;28;20040;-78
2022/07/26 07:35:40;;;;;;;9.85;9.00;;;;;;;;;;5047493;28;20031;-77
2022/07/26 07:38:06;;;;;;;9.55;8.65;;;;;;;;;;5047802;28;20025;-77
2022/07/26 07:40:32;;;;;;;10.35;9.38;;;;;;;;;;5061767;28;20083;-78
2022/07/26 07:42:57;;;;;;;10.38;9.52;;;;;;;;;;5066993;28;20121;-77
2022/07/26 07:45:23;;;;;;;9.80;8.90;;;;;;;;;;5066708;28;20024;-76
2022/07/26 07:47:48;;;;;;;9.75;8.98;;;;;;;;;;5066877;28;20120;-77
2022/07/26 07:50:13;;;;;;;10.18;8.35;;;;;;;;;;5066940;28;20048;-78
2022/07/26 07:52:39;;;;;;;9.75;8.95;;;;;;;;;;5067039;28;20033;-77
2022/07/26 07:55:04;;;;;;;9.27;8.40;;;;;;;;;;5067128;28;20056;-77
2022/07/26 07:57:30;;;;;;;9.32;8.43;;;;;;;;;;5066366;28;20027;-78
2022/07/26 07:59:55;;;;;;;8.85;8.05;;;;;;;;;;5066758;28;20103;-76
2022/07/26 08:02:20;;;;;;;9.02;8.23;;;;;;;;;;5066949;28;20024;-78
2022/07/26 08:04:46;;;;;;;8.73;8.02;;;;;;;;;;5066252;28;20127;-77
2022/07/26 08:07:11;;;;;;;9.15;8.10;;;;;;;;;;5066849;28;20328;-77
2022/07/26 08:09:36;;;;;;;7.97;7.28;;;;;;;;;;5066762;28;20119;-78
2022/07/26 08:12:02;;;;;;;8.25;7.53;;;;;;;;;;5066502;28;20032;-77
2022/07/26 08:14:27;;;;;;;7.80;7.07;;;;;;;;;;5066520;28;20506;-78
2022/07/26 08:16:53;;;;;;;7.70;7.10;;;;;;;;;;5049302;28;20427;-78
2022/07/26 08:19:18;;;;;;;7.65;7.05;;;;;;;;;;5066605;28;20471;-77
2022/07/26 08:21:44;;;;;;;7.28;6.57;;;;;;;;;;5066246;28;20411;-78
2022/07/26 08:24:10;;;;;;;7.45;6.85;;;;;;;;;;5065882;28;20044;-77
2022/07/26 08:26:36;;;;;;;7.68;6.88;;;;;;;;;;5066631;28;20016;-79
2022/07/26 08:29:01;;;;;;;6.80;5.45;;;;;;;;;;5066135;28;20020;-79
2022/07/26 08:31:29;;;;;;;7.43;6.75;;;;;;;;;;5066321;28;20126;-79
2022/07/26 08:33:55;;;;;;;7.68;6.75;;;;;;;;;;5065932;28;20021;-80
2022/07/26 08:36:20;;;;;;;6.88;6.28;;;;;;;;;;5066105;28;20409;-75
2022/07/26 08:38:45;;;;;;;5.95;5.45;;;;;;;;;;5066514;28;20062;-78
2022/07/26 08:41:11;;;;;;;6.35;5.85;;;;;;;;;;5066543;28;20063;-78
2022/07/26 08:43:36;;;;;;;6.88;6.28;;;;;;;;;;5065718;28;20343;-81
2022/07/26 08:46:02;;;;;;;7.30;6.65;;;;;;;;;;5065676;28;20070;-82
2022/07/26 08:48:27;;;;;;;7.00;6.50;;;;;;;;;;5066256;28;20082;-80
2022/07/26 08:50:54;;;;;;;7.05;6.45;;;;;;;;;;5066153;28;20021;-78
2022/07/26 08:53:19;;;;;;;7.97;6.32;;;;;;;;;;5066492;28;20043;-78
2022/07/26 08:55:45;;;;;;;6.70;6.10;;;;;;;;;;5066689;28;20108;-79
2022/07/26 08:58:10;;;;;;;7.10;6.22;;;;;;;;;;5066000;28;20024;-79
2022/07/26 09:00:36;;;;;;;5.72;5.32;;;;;;;;;;5065937;28;20024;-82
2022/07/26 09:03:02;;;;;;;6.13;5.53;;;;;;;;;;5065944;28;20461;-82
2022/07/26 09:05:34;;;;;;;6.82;6.13;;;;;;;;;;5066391;28;20407;-79
2022/07/26 09:08:00;;;;;;;12.52;6.35;;;;;;;;;;5066278;28;21203;-79
2022/07/26 09:10:25;;;;;;;6.75;6.25;;;;;;;;;;5066020;28;20146;-77
2022/07/26 09:12:57;;;;;;;6.28;5.80;;;;;;;;;;5065681;28;20029;-76
2022/07/26 09:15:26;;;;;;;7.85;5.95;;;;;;;;;;5063335;28;20064;-78
2022/07/26 09:17:52;;;;;;;6.80;6.10;;;;;;;;;;5065936;28;20059;-81
2022/07/26 09:20:26;;;;;;;7.25;6.55;;;;;;;;;;5065727;28;20032;-79
2022/07/26 09:23:05;;;;;;;6.88;6.28;;;;;;;;;;5065710;28;20029;-83
2022/07/26 09:25:32;;;;;;;6.65;5.97;;;;;;;;;;5065925;28;20546;-78
2022/07/26 09:27:58;;;;;;;6.55;5.95;;;;;;;;;;5048472;28;20413;-78
2022/07/26 09:30:24;;;;;;;6.93;6.30;;;;;;;;;;5065084;28;20025;-77
2022/07/26 09:32:57;;;;;;;6.50;5.88;;;;;;;;;;5065132;28;20032;-79
2022/07/26 09:35:23;;;;;;;6.43;5.90;;;;;;;;;;5062263;28;20025;-77
2022/07/26 09:37:48;;;;;;;7.95;6.85;;;;;;;;;;5065205;28;20585;-78
2022/07/26 09:40:15;;;;;;;7.75;6.68;;;;;;;;;;5065259;28;20056;-77
2022/07/26 09:43:00;;;;;;;6.80;6.20;;;;;;;;;;5064947;28;20036;-77
2022/07/26 09:45:26;;;;;;;7.95;5.90;;;;;;;;;;5062705;28;20031;-77
2022/07/26 09:47:51;;;;;;;6.40;5.90;;;;;;;;;;5065461;28;20035;-78
2022/07/26 09:50:21;;;;;;;6.88;6.38;;;;;;;;;;5064414;28;20028;-77
2022/07/26 09:53:08;;;;;;;7.05;6.45;;;;;;;;;;5064773;28;20036;-76
2022/07/26 09:55:35;;;;;;;6.47;5.72;;;;;;;;;;5064045;28;20020;-79
2022/07/26 09:58:02;;;;;;;6.78;6.22;;;;;;;;;;5064925;28;20082;-78
2022/07/26 10:00:31;;;;;;;6.75;5.85;;;;;;;;;;5064718;28;20455;-79
2022/07/26 10:02:57;;;;;;;7.03;6.32;;;;;;;;;;5064943;28;20029;-76
2022/07/26 10:05:22;;;;;;;6.53;6.03;;;;;;;;;;5064622;28;20028;-77
2022/07/26 10:07:49;;;;;;;6.90;6.40;;;;;;;;;;5064467;28;20052;-76
2022/07/26 10:10:17;;;;;;;6.68;6.07;;;;;;;;;;5064085;28;20028;-77
2022/07/26 10:12:45;;;;;;;6.80;6.30;;;;;;;;;;5064639;28;20103;-79
2022/07/26 10:15:36;;;;;;;7.00;6.47;;;;;;;;;;5065041;28;20016;-78
2022/07/26 10:18:03;;;;;;;6.30;5.70;;;;;;;;;;5059683;28;20043;-76
2022/07/26 10:20:38;;;;;;;8.70;6.10;;;;;;;;;;5064906;28;20441;-76
2022/07/26 10:23:04;;;;;;;6.60;6.10;;;;;;;;;;5064457;28;20012;-79
2022/07/26 10:25:29;;;;;;;6.47;5.90;;;;;;;;;;5064325;28;20032;-77
2022/07/26 10:27:56;;;;;;;6.40;5.80;;;;;;;;;;5064962;28;20022;-78
2022/07/26 10:30:22;;;;;;;6.10;5.60;;;;;;;;;;5064566;28;20604;-80
2022/07/26 10:32:53;;;;;;;5.90;5.40;;;;;;;;;;5064761;28;20060;-79
2022/07/26 10:35:37;;;;;;;6.63;6.13;;;;;;;;;;5064620;28;20029;-76
2022/07/26 10:38:04;;;;;;;9.68;5.63;;;;;;;;;;5062834;28;20024;-78
2022/07/26 10:40:30;;;;;;;6.93;5.80;;;;;;;;;;5064733;28;20478;-76
2022/07/26 10:43:06;;;;;;;5.32;4.93;;;;;;;;;;5064482;28;20024;-77
2022/07/26 10:45:31;;;;;;;5.57;5.18;;;;;;;;;;5064051;28;20035;-78
2022/07/26 10:48:21;;;;;;;4.90;4.50;;;;;;;;;;5061854;28;20029;-77
2022/07/26 10:50:51;;;;;;;4.85;4.45;;;;;;;;;;5051952;28;20037;-79
2022/07/26 10:53:18;;;;;;;5.22;4.50;;;;;;;;;;5064078;28;20476;-76
2022/07/26 10:55:47;;;;;;;5.50;4.95;;;;;;;;;;5064613;28;20016;-78
2022/07/26 10:58:13;;;;;;;5.60;5.20;;;;;;;;;;5063918;28;20029;-78
2022/07/26 11:00:38;;;;;;;4.78;4.38;;;;;;;;;;5064059;28;20115;-78
2022/07/26 11:03:04;;;;;;;5.25;4.85;;;;;;;;;;5064755;28;20075;-78
2022/07/26 11:05:30;;;;;;;5.32;4.93;;;;;;;;;;5064131;28;20051;-79
2022/07/26 11:08:09;;;;;;;5.53;5.13;;;;;;;;;;5067582;28;20020;-79
2022/07/26 11:10:34;;;;;;;5.65;5.05;;;;;;;;;;5067404;28;20089;-78
2022/07/26 11:13:07;;;;;;;6.67;5.97;;;;;;;;;;5068313;28;20024;-78
2022/07/26 11:15:34;;;;;;;6.72;5.30;;;;;;;;;;5068174;28;20324;-79
2022/07/26 11:18:07;;;;;;;5.97;5.43;;;;;;;;;;5067958;28;20116;-77
2022/07/26 11:20:32;;;;;;;4.80;4.50;;;;;;;;;;5068067;28;20067;-78
2022/07/26 11:22:57;;;;;;;5.90;4.43;;;;;;;;;;5068582;28;20392;-79
2022/07/26 11:25:23;;;;;;;5.10;4.70;;;;;;;;;;5067968;28;20029;-80
2022/07/26 11:28:17;;;;;;;5.82;5.30;;;;;;;;;;5067724;28;20040;-77
2022/07/26 11:30:54;;;;;;;6.57;6.07;;;;;;;;;;4966807;28;20465;-77
2022/07/26 11:33:20;;;;;;;6.13;5.53;;;;;;;;;;4967362;28;20153;-78
2022/07/26 11:35:51;;;;;;;5.60;5.07;;;;;;;;;;4966580;28;20201;-80
2022/07/26 11:38:16;;;;;;;5.82;5.10;;;;;;;;;;4966579;28;20030;-77
2022/07/26 11:40:46;;;;;;;5.55;5.05;;;;;;;;;;4966416;28;20060;-79
2022/07/26 11:43:11;;;;;;;4.95;4.65;;;;;;;;;;4966738;28;20041;-77
2022/07/26 11:45:37;;;;;;;7.80;4.97;;;;;;;;;;4967061;28;20030;-77
2022/07/26 11:48:03;;;;;;;5.40;5.00;;;;;;;;;;4966664;28;20037;-78
2022/07/26 11:50:29;;;;;;;5.95;5.43;;;;;;;;;;4966794;28;20466;-81
2022/07/26 11:52:54;;;;;;;5.55;5.15;;;;;;;;;;4966531;28;20066;-81
2022/07/26 11:55:26;;;;;;;5.43;5.03;;;;;;;;;;4966439;28;20045;-78
2022/07/26 11:57:52;;;;;;;5.50;4.95;;;;;;;;;;4966782;28;20514;-77
2022/07/26 12:00:17;;;;;;;6.05;5.43;;;;;;;;;;4966793;28;20066;-77
2022/07/26 12:02:42;;;;;;;5.80;5.40;;;;;;;;;;4966495;28;20089;-75
2022/07/26 12:05:14;;;;;;;5.78;5.28;;;;;;;;;;4966378;28;20522;-79
2022/07/26 12:07:51;;;;;;;5.25;4.75;;;;;;;;;;5040064;28;20049;-77
2022/07/26 12:10:16;;;;;;;5.22;4.82;;;;;;;;;;5066864;28;20059;-78
2022/07/26 12:12:41;;;;;;;6.30;5.38;;;;;;;;;;5067531;28;20075;-79
2022/07/26 12:15:07;;;;;;;5.55;5.03;;;;;;;;;;5067116;28;20031;-79
2022/07/26 12:17:33;;;;;;;5.70;5.20;;;;;;;;;;5067206;28;20054;-79
2022/07/26 12:20:11;;;;;;;5.85;5.35;;;;;;;;;;5066586;28;20032;-79
2022/07/26 12:22:37;;;;;;;5.72;5.22;;;;;;;;;;5066389;28;20047;-78
2022/07/26 12:25:02;;;;;;;5.15;4.75;;;;;;;;;;5067247;28;20083;-78
2022/07/26 12:27:29;;;;;;;6.18;5.60;;;;;;;;;;5067704;28;20510;-83
2022/07/26 12:30:03;;;;;;;5.75;4.90;;;;;;;;;;5067054;28;20033;-77
2022/07/26 12:32:40;;;;;;;5.60;5.18;;;;;;;;;;5067470;28;20439;-77
2022/07/26 12:35:10;;;;;;;6.07;4.85;;;;;;;;;;5067202;28;20013;-79
2022/07/26 12:37:38;;;;;;;5.38;4.18;;;;;;;;;;5066865;28;20052;-78
2022/07/26 12:40:04;;;;;;;5.38;4.97;;;;;;;;;;5066920;28;20470;-77
2022/07/26 12:42:30;;;;;;;6.70;5.50;;;;;;;;;;5067232;28;20108;-77
2022/07/26 12:44:56;;;;;;;5.18;4.78;;;;;;;;;;5066423;28;20336;-80
2022/07/26 12:47:22;;;;;;;5.03;4.63;;;;;;;;;;5067052;28;20024;-77
2022/07/26 12:49:47;;;;;;;5.70;5.20;;;;;;;;;;5067394;28;20024;-78
2022/07/26 12:52:14;;;;;;;6.20;5.65;;;;;;;;;;5066682;28;20032;-80
2022/07/26 12:54:40;;;;;;;7.40;5.88;;;;;;;;;;5067151;28;20027;-77
2022/07/26 12:57:05;;;;;;;6.03;5.18;;;;;;;;;;5066609;28;20031;-80
2022/07/26 12:59:30;;;;;;;6.72;6.22;;;;;;;;;;5066040;28;20024;-80
2022/07/26 13:01:56;;;;;;;10.80;5.40;;;;;;;;;;5066632;28;20056;-78
2022/07/26 13:04:21;;;;;;;6.72;5.22;;;;;;;;;;5066685;28;20370;-80
2022/07/26 13:06:47;;;;;;;5.20;4.75;;;;;;;;;;5066291;28;20051;-77
2022/07/26 13:09:12;;;;;;;5.35;4.95;;;;;;;;;;5066102;28;20427;-80
2022/07/26 13:11:37;;;;;;;5.93;5.43;;;;;;;;;;5066203;28;20428;-80
2022/07/26 13:14:03;;;;;;;10.38;5.35;;;;;;;;;;5066053;28;20109;-78
2022/07/26 13:16:28;;;;;;;6.05;4.70;;;;;;;;;;5066252;28;20104;-79
2022/07/26 13:18:53;;;;;;;4.40;4.10;;;;;;;;;;5065957;28;20025;-80
2022/07/26 13:21:19;;;;;;;7.72;4.80;;;;;;;;;;5066240;28;20030;-77
2022/07/26 13:23:44;;;;;;;5.47;5.07;;;;;;;;;;5066251;28;20024;-76
2022/07/26 13:26:09;;;;;;;5.22;4.82;;;;;;;;;;5065823;28;20020;-78
2022/07/26 13:28:35;;;;;;;4.80;4.47;;;;;;;;;;5065678;28;20025;-78
2022/07/26 13:31:01;;;;;;;5.72;5.22;;;;;;;;;;5062997;28;20098;-79
2022/07/26 13:33:26;;;;;;;8.65;5.25;;;;;;;;;;5064161;28;20032;-78
2022/07/26 13:35:51;;;;;;;5.32;4.93;;;;;;;;;;5063788;28;20051;-77
2022/07/26 13:38:18;;;;;;;5.57;5.07;;;;;;;;;;5064944;28;20020;-81
2022/07/26 13:40:43;;;;;;;4.70;4.35;;;;;;;;;;5064625;28;20063;-78
2022/07/26 13:43:09;;;;;;;5.57;5.00;;;;;;;;;;5065162;28;20024;-77
2022/07/26 13:45:34;;;;;;;5.38;4.88;;;;;;;;;;5065431;28;20734;-80
2022/07/26 13:47:59;;;;;;;4.10;3.80;;;;;;;;;;5053962;28;20076;-76
2022/07/26 13:50:26;;;;;;;5.15;4.75;;;;;;;;;;5060943;28;20040;-80
2022/07/26 13:52:52;;;;;;;5.10;4.70;;;;;;;;;;5064919;28;20044;-79
2022/07/26 13:55:19;;;;;;;4.53;4.22;;;;;;;;;;5061807;28;20024;-79
2022/07/26 13:57:44;;;;;;;5.90;5.35;;;;;;;;;;5055385;28;20381;-83
2022/07/26 14:00:10;;;;;;;4.78;4.35;;;;;;;;;;5054869;28;20028;-83
2022/07/26 14:02:36;;;;;;;4.60;4.30;;;;;;;;;;5055218;28;20027;-79
2022/07/26 14:05:01;;;;;;;4.82;4.43;;;;;;;;;;5054760;28;20025;-76
2022/07/26 14:07:27;;;;;;;10.88;5.00;;;;;;;;;;5055511;28;20116;-79
2022/07/26 14:09:52;;;;;;;5.22;4.85;;;;;;;;;;5060992;28;20064;-77
2022/07/26 14:12:17;;;;;;;5.35;4.85;;;;;;;;;;5064727;28;20432;-79
2022/07/26 14:14:43;;;;;;;5.07;4.57;;;;;;;;;;5065087;28;20032;-78
2022/07/26 14:17:08;;;;;;;4.93;4.55;;;;;;;;;;5064027;28;20029;-79
2022/07/26 14:19:35;;;;;;;5.00;4.60;;;;;;;;;;5064881;28;20025;-75
2022/07/26 14:22:01;;;;;;;5.18;4.68;;;;;;;;;;5055810;28;20024;-76
2022/07/26 14:24:27;;;;;;;4.32;4.03;;;;;;;;;;5061908;28;20051;-82
2022/07/26 14:26:52;;;;;;;5.03;4.53;;;;;;;;;;5060871;28;20028;-76
2022/07/26 14:29:17;;;;;;;4.45;4.15;;;;;;;;;;5059317;28;20032;-77
2022/07/26 14:31:43;;;;;;;4.80;4.40;;;;;;;;;;5064141;28;20092;-79
2022/07/26 14:34:09;;;;;;;4.97;4.45;;;;;;;;;;5064114;28;20121;-78